Huvudsida
METAR-TAF:

METAR-TAF

Flygplatser :

Ljungbyhed, Sverige

latitud: 56-04N, longitud: 013-12E, höjd: 43 m

Aktuellt väderrapport

Denna rapport gjordes för 34 minuter sedan, klockan 13:20 UTC
Vind 16 kt från väst
Temperatur 14°C
Fuktighet 72%
Tryck 1004 hPa
Sikt 10 km eller mer

METAR: ESTL 261320Z AUTO 28016KT 9999 ///////// 14/09 Q1004

Tid: 15:54 (13:54 UTC)


TAF: saknas

Aktuella väderrapporter och prognoser från 4000 flygplatser (METAR- och TAF-rapporter).

De tillgängliga stationerna syns som gula och röda prickar på kartan.

För musen över prickarna för att se namnen på stationerna.

Klicka sedan för att få väderrapporter och prognoser.

För att ändra kartan: Klicka på de gröna knapparna med ett svart kors på för att zooma in; den gröna knappen med ett streck på för att zooma ut; eller på de gröna pilarna för angränsande kartor.


METAR-TAF: